Time;durP1;ratioP1;P1;durP2;ratioP2;P2;SDS_P1;SDS_P2;PMS_P1;PMS_P2;Temp;Humidity;BMP_temperature;BMP_pressure;BME280_temperature;BME280_humidity;BME280_pressure;Samples;Min_cycle;Max_cycle;Signal;HPM_P1;HPM_P2
2022/12/10 00:01:28;;;;;;;5.70;2.80;;;;;;;-2.92;69.38;100930.00;5097228;28;20048;-75
2022/12/10 00:03:55;;;;;;;6.82;3.10;;;;;;;-2.97;69.92;100929.81;5096498;28;20047;-75
2022/12/10 00:06:24;;;;;;;3.35;2.08;;;;;;;-2.97;69.48;100926.41;5095613;28;20044;-75
2022/12/10 00:08:51;;;;;;;5.65;2.42;;;;;;;-2.92;69.48;100935.13;5096239;28;20044;-74
2022/12/10 00:11:19;;;;;;;5.95;2.58;;;;;;;-2.92;69.66;100937.66;5092204;28;20069;-75
2022/12/10 00:13:46;;;;;;;5.20;2.75;;;;;;;-2.91;69.47;100941.09;5099709;28;20048;-74
2022/12/10 00:16:16;;;;;;;6.25;2.80;;;;;;;-2.95;69.22;100935.88;5099478;27;20772;-75
2022/12/10 00:18:45;;;;;;;4.60;2.95;;;;;;;-2.93;69.51;100935.94;5100258;27;20062;-74
2022/12/10 00:21:14;;;;;;;4.97;2.47;;;;;;;-2.94;69.50;100937.59;5099869;28;20471;-75
2022/12/10 00:23:41;;;;;;;6.25;2.40;;;;;;;-2.98;69.55;100942.56;5099602;28;20047;-75
2022/12/10 00:26:11;;;;;;;4.07;2.72;;;;;;;-2.99;69.42;100944.25;5101118;28;20062;-74
2022/12/10 00:28:38;;;;;;;3.78;1.88;;;;;;;-2.98;69.16;100945.97;5101440;28;20044;-75
2022/12/10 00:31:06;;;;;;;5.95;2.58;;;;;;;-2.99;69.18;100949.34;5097647;28;20067;-75
2022/12/10 00:33:32;;;;;;;2.95;1.92;;;;;;;-2.99;69.18;100954.47;5100748;28;20129;-75
2022/12/10 00:36:04;;;;;;;4.45;1.45;;;;;;;-3.05;68.87;100946.53;5099832;28;20043;-75
2022/12/10 00:38:31;;;;;;;2.10;1.13;;;;;;;-3.09;69.38;100938.69;5100804;28;20052;-75
2022/12/10 00:40:57;;;;;;;2.30;0.98;;;;;;;-3.15;69.41;100929.13;5099755;28;20054;-75
2022/12/10 00:43:24;;;;;;;3.53;1.80;;;;;;;-3.02;69.30;100949.19;5099394;28;20048;-74
2022/12/10 00:45:51;;;;;;;2.13;1.00;;;;;;;-3.13;69.59;100934.25;5100440;28;20063;-75
2022/12/10 00:48:18;;;;;;;2.10;0.98;;;;;;;-3.06;69.58;100947.34;5100292;28;20055;-75
2022/12/10 00:50:44;;;;;;;2.42;0.90;;;;;;;-3.04;69.37;100948.28;5098557;28;20491;-75
2022/12/10 00:53:13;;;;;;;2.15;1.00;;;;;;;-3.03;69.19;100946.59;5101144;28;20048;-75
2022/12/10 00:55:39;;;;;;;1.80;0.80;;;;;;;-3.03;69.48;100942.34;5100761;28;20055;-75
2022/12/10 00:58:06;;;;;;;1.30;1.13;;;;;;;-3.06;69.48;100946.50;5098182;28;20055;-75
2022/12/10 01:00:33;;;;;;;2.22;1.08;;;;;;;-3.08;69.06;100943.00;5100082;28;20055;-75
2022/12/10 01:02:59;;;;;;;1.60;0.65;;;;;;;-3.22;69.08;100922.00;5098708;28;20043;-75
2022/12/10 01:05:26;;;;;;;3.17;1.00;;;;;;;-3.08;69.57;100940.44;5100344;28;20051;-75
2022/12/10 01:07:53;;;;;;;1.88;1.15;;;;;;;-3.06;69.17;100947.34;5101319;28;20052;-74
2022/12/10 01:10:22;;;;;;;2.00;1.13;;;;;;;-3.03;69.25;100951.72;5097304;28;20118;-75
2022/12/10 01:12:48;;;;;;;2.72;1.10;;;;;;;-3.04;69.24;100955.09;5101192;28;20051;-75
2022/12/10 01:15:15;;;;;;;2.05;0.90;;;;;;;-3.08;69.17;100943.00;5097736;28;20048;-74
2022/12/10 01:17:42;;;;;;;1.73;1.00;;;;;;;-3.10;69.33;100940.38;5098268;27;20048;-75
2022/12/10 01:20:10;;;;;;;1.90;1.15;;;;;;;-3.07;69.05;100944.75;5097819;28;20129;-74
2022/12/10 01:22:37;;;;;;;1.45;1.02;;;;;;;-3.11;69.01;100943.75;5099584;28;20051;-75
2022/12/10 01:25:04;;;;;;;1.30;0.80;;;;;;;-3.05;69.41;100946.53;5099268;28;20043;-75
2022/12/10 01:27:32;;;;;;;0.93;0.57;;;;;;;-3.06;68.85;100956.72;5098126;28;20486;-75
2022/12/10 01:29:59;;;;;;;2.75;0.70;;;;;;;-3.19;69.41;100935.78;5099835;28;20059;-75
2022/12/10 01:32:25;;;;;;;2.22;0.75;;;;;;;-3.07;69.04;100949.88;5100327;28;20071;-74
2022/12/10 01:34:52;;;;;;;0.88;0.80;;;;;;;-3.07;69.07;100948.19;5099053;28;20044;-74
2022/12/10 01:37:19;;;;;;;1.98;0.82;;;;;;;-3.10;69.10;100945.50;5100111;28;20044;-75
2022/12/10 01:39:46;;;;;;;1.98;1.42;;;;;;;-3.24;69.24;100921.97;5098503;28;20055;-75
2022/12/10 01:42:14;;;;;;;1.75;0.77;;;;;;;-3.12;69.10;100936.91;5098217;28;20054;-75
2022/12/10 01:45:10;;;;;;;3.08;0.98;;;;;;;-3.16;69.19;100935.00;5099241;28;20093;-75
2022/12/10 01:47:36;;;;;;;1.17;0.73;;;;;;;-3.18;69.24;100937.53;5098288;28;20051;-75
2022/12/10 01:50:05;;;;;;;1.52;0.50;;;;;;;-3.16;69.02;100940.13;5099172;28;20048;-74
2022/12/10 01:52:31;;;;;;;1.83;0.82;;;;;;;-3.11;68.90;100947.97;5097151;28;20556;-75
2022/12/10 01:54:58;;;;;;;1.05;0.75;;;;;;;-3.19;69.30;100935.78;5097867;28;20437;-75
2022/12/10 01:57:28;;;;;;;1.92;1.13;;;;;;;-3.14;69.36;100938.50;5100491;28;20047;-76
2022/12/10 01:59:58;;;;;;;2.22;0.85;;;;;;;-3.12;69.02;100947.13;5097281;28;20048;-74
2022/12/10 02:02:35;;;;;;;2.25;0.98;;;;;;;-3.16;69.47;100947.78;5100443;28;20047;-75
2022/12/10 02:05:16;;;;;;;3.78;1.20;;;;;;;-3.11;69.42;100963.31;5099915;27;20051;-75
2022/12/10 02:07:56;;;;;;;2.25;0.98;;;;;;;-3.11;69.16;100964.19;5093613;28;20132;-75
2022/12/10 02:10:35;;;;;;;1.73;0.65;;;;;;;-3.27;69.33;100941.41;5097540;28;20044;-75
2022/12/10 02:13:08;;;;;;;5.07;1.17;;;;;;;-3.11;69.29;100969.28;5098591;28;20388;-74
2022/12/10 02:15:41;;;;;;;1.98;0.80;;;;;;;-3.11;69.33;100969.28;5096689;28;20051;-74
2022/12/10 02:18:12;;;;;;;2.97;1.00;;;;;;;-3.17;69.37;100953.72;5099371;28;20048;-75
2022/12/10 02:20:42;;;;;;;2.22;0.90;;;;;;;-3.24;69.27;100941.53;5097473;28;20051;-75
2022/12/10 02:23:12;;;;;;;2.75;1.02;;;;;;;-3.09;69.33;100970.22;5098714;28;20074;-75
2022/12/10 02:25:44;;;;;;;1.77;1.30;;;;;;;-3.08;69.24;100969.41;5099830;28;20055;-75
2022/12/10 02:28:19;;;;;;;2.83;1.13;;;;;;;-3.07;69.20;100973.72;5097057;28;20091;-75
2022/12/10 02:30:49;;;;;;;2.42;1.10;;;;;;;-3.08;69.32;100968.53;5098220;28;20142;-75
2022/12/10 02:33:18;;;;;;;4.35;1.33;;;;;;;-3.04;69.39;100975.53;5096340;28;20062;-75
2022/12/10 02:35:48;;;;;;;3.05;1.67;;;;;;;-3.07;69.53;100968.63;5097222;28;20100;-74
2022/12/10 02:38:21;;;;;;;3.17;1.17;;;;;;;-3.06;69.32;100962.69;5093077;28;20051;-75
2022/12/10 02:40:53;;;;;;;2.85;1.30;;;;;;;-3.06;69.36;100967.78;5097224;28;20048;-75
2022/12/10 02:43:22;;;;;;;3.78;1.63;;;;;;;-3.04;69.78;100957.66;5095868;28;20048;-78
2022/12/10 02:45:51;;;;;;;1.40;1.00;;;;;;;-3.15;69.21;100941.03;5099559;28;20055;-74
2022/12/10 02:48:20;;;;;;;2.13;1.17;;;;;;;-3.01;69.31;100971.41;5095747;28;20052;-76
2022/12/10 02:50:47;;;;;;;3.33;1.30;;;;;;;-3.01;69.83;100968.84;5098274;28;20048;-76
2022/12/10 02:53:14;;;;;;;3.45;1.40;;;;;;;-3.15;69.51;100938.47;5097693;28;20576;-76
2022/12/10 02:55:55;;;;;;;3.88;1.63;;;;;;;-3.02;69.63;100964.53;5099521;28;20056;-76
2022/12/10 02:58:34;;;;;;;1.95;1.10;;;;;;;-3.05;69.40;100955.88;5097290;28;20494;-76
2022/12/10 03:01:11;;;;;;;3.90;0.90;;;;;;;-2.97;69.50;100970.72;5097662;28;20566;-75
2022/12/10 03:03:48;;;;;;;2.22;1.15;;;;;;;-2.96;69.79;100969.91;5098585;28;20069;-75
2022/12/10 03:06:21;;;;;;;2.83;1.83;;;;;;;-2.95;69.65;100960.56;5094781;28;20083;-76
2022/12/10 03:08:52;;;;;;;2.50;1.15;;;;;;;-2.98;69.68;100961.31;5096692;28;20045;-75
2022/12/10 03:11:22;;;;;;;1.90;1.10;;;;;;;-3.06;69.72;100947.34;5098191;28;20048;-76
2022/12/10 03:13:54;;;;;;;2.15;1.00;;;;;;;-3.04;69.53;100952.53;5097549;28;20106;-75
2022/12/10 03:16:24;;;;;;;3.35;1.33;;;;;;;-2.99;69.78;100953.56;5097237;28;20418;-77
2022/12/10 03:18:56;;;;;;;4.90;1.65;;;;;;;-2.97;69.60;100957.06;5096127;28;20477;-76
2022/12/10 03:21:24;;;;;;;1.67;0.90;;;;;;;-2.91;69.75;100971.75;5095523;28;20040;-75
2022/12/10 03:23:51;;;;;;;3.05;1.10;;;;;;;-3.07;69.67;100943.06;5097067;28;20090;-75
2022/12/10 03:26:19;;;;;;;3.38;1.33;;;;;;;-2.95;69.73;100966.53;5094448;28;20051;-75
2022/12/10 03:28:51;;;;;;;2.15;1.02;;;;;;;-2.88;69.70;100971.88;5096167;28;20063;-76
2022/12/10 03:31:19;;;;;;;1.92;1.20;;;;;;;-2.88;69.71;100979.56;5096755;28;20040;-76
2022/12/10 03:33:48;;;;;;;2.13;0.90;;;;;;;-2.86;70.08;100975.38;5096903;28;20116;-79
2022/12/10 03:36:17;;;;;;;3.13;1.45;;;;;;;-2.96;69.73;100956.25;5096669;28;20125;-76
2022/12/10 03:38:44;;;;;;;1.75;0.70;;;;;;;-2.85;69.69;100977.13;5097525;28;20056;-76
2022/12/10 03:41:11;;;;;;;3.17;0.68;;;;;;;-2.84;69.43;100973.75;5098993;28;20043;-72
2022/12/10 03:43:51;;;;;;;2.47;0.88;;;;;;;-2.88;69.68;100965.09;5094240;28;20047;-72
2022/12/10 03:46:18;;;;;;;1.17;0.88;;;;;;;-2.83;69.78;100970.38;5092495;28;20073;-72
2022/12/10 03:48:45;;;;;;;1.30;0.80;;;;;;;-2.82;69.87;100975.53;5100332;28;20056;-72
2022/12/10 03:51:13;;;;;;;1.85;1.00;;;;;;;-2.80;69.92;100970.50;5100680;28;20044;-72
2022/12/10 03:53:39;;;;;;;0.73;0.60;;;;;;;-2.81;69.99;100968.78;5101937;28;20088;-74
2022/12/10 03:56:06;;;;;;;1.38;0.70;;;;;;;-2.77;69.76;100975.72;5100884;28;20089;-76
2022/12/10 03:58:33;;;;;;;2.08;1.38;;;;;;;-2.77;69.85;100965.50;5101212;28;20048;-75
2022/12/10 04:01:00;;;;;;;2.20;0.82;;;;;;;-2.74;69.97;100970.72;5100801;28;20059;-75
2022/12/10 04:03:27;;;;;;;1.23;0.70;;;;;;;-2.73;69.77;100964.81;5100473;27;20055;-74
2022/12/10 04:05:54;;;;;;;2.13;0.80;;;;;;;-2.73;69.71;100964.81;5096554;28;20051;-75
2022/12/10 04:08:22;;;;;;;1.63;0.77;;;;;;;-2.71;69.99;100960.63;5100068;28;20051;-75
2022/12/10 04:10:48;;;;;;;1.40;0.77;;;;;;;-2.69;69.92;100966.66;5100075;27;20494;-75
2022/12/10 04:18:43;;;;;;;4.75;0.98;;;;;;;-2.67;69.69;100959.06;5098908;28;20510;-75
2022/12/10 04:26:55;;;;;;;2.40;0.60;;;;;;;-2.64;69.98;100967.72;5098976;28;20124;-74
2022/12/10 04:29:23;;;;;;;1.38;0.73;;;;;;;-2.64;69.90;100966.84;5097904;28;21431;-75
2022/12/10 04:31:50;;;;;;;1.50;0.80;;;;;;;-2.63;69.66;100969.47;5099745;27;20112;-75
2022/12/10 04:34:16;;;;;;;2.35;1.42;;;;;;;-2.71;69.86;100945.28;5099926;28;20105;-75
2022/12/10 04:36:43;;;;;;;0.95;0.52;;;;;;;-2.62;69.92;100958.44;5099246;28;20051;-75
2022/12/10 04:39:12;;;;;;;2.10;0.73;;;;;;;-2.64;69.63;100957.50;5100409;28;20043;-75
2022/12/10 04:41:40;;;;;;;3.45;0.60;;;;;;;-2.68;69.87;100950.50;5095078;28;20632;-75
2022/12/10 04:44:06;;;;;;;2.70;0.98;;;;;;;-2.59;69.97;100963.66;5100062;28;20047;-75
2022/12/10 04:46:33;;;;;;;1.25;0.80;;;;;;;-2.59;69.90;100971.34;5098642;28;20051;-75
2022/12/10 04:49:00;;;;;;;1.33;0.50;;;;;;;-2.58;69.92;100959.41;5097339;28;20073;-75
2022/12/10 04:51:27;;;;;;;0.80;0.50;;;;;;;-2.57;70.06;100959.44;5100053;28;20047;-74
2022/12/10 04:53:54;;;;;;;1.40;0.68;;;;;;;-2.56;70.07;100966.34;5099117;28;20548;-77
2022/12/10 04:56:22;;;;;;;1.08;0.50;;;;;;;-2.55;70.08;100956.97;5100206;28;20528;-75
2022/12/10 04:58:48;;;;;;;1.15;0.70;;;;;;;-2.61;70.13;100949.06;5098037;28;20109;-75
2022/12/10 05:01:15;;;;;;;1.63;0.77;;;;;;;-2.53;69.93;100968.13;5100262;28;20044;-75
2022/12/10 05:03:42;;;;;;;1.02;0.60;;;;;;;-2.52;70.53;100968.19;5099431;28;20047;-75
2022/12/10 05:06:12;;;;;;;1.77;0.60;;;;;;;-2.51;70.57;100966.47;5098652;28;20050;-74
2022/12/10 05:08:40;;;;;;;1.67;0.65;;;;;;;-2.49;70.07;100964.88;5096902;28;20055;-74
2022/12/10 05:11:10;;;;;;;1.75;0.90;;;;;;;-2.48;70.42;100958.94;5099887;28;20495;-74
2022/12/10 05:13:38;;;;;;;1.00;0.63;;;;;;;-2.46;70.44;100961.56;5098391;28;20522;-75
2022/12/10 05:16:07;;;;;;;0.90;0.63;;;;;;;-2.46;69.95;100962.41;5099654;28;20055;-76
2022/12/10 05:18:34;;;;;;;0.60;0.43;;;;;;;-2.47;70.07;100960.69;5095699;28;20051;-74
2022/12/10 05:21:02;;;;;;;1.55;0.80;;;;;;;-2.42;70.08;100969.41;5099744;28;20048;-75
2022/12/10 05:23:28;;;;;;;1.33;0.70;;;;;;;-2.41;70.05;100965.16;5097348;27;20048;-76
2022/12/10 05:25:59;;;;;;;1.25;0.60;;;;;;;-2.40;70.30;100972.00;5097938;28;20108;-75
2022/12/10 05:28:27;;;;;;;1.10;0.55;;;;;;;-2.46;70.21;100957.31;5097685;28;20107;-75
2022/12/10 05:30:55;;;;;;;2.03;1.27;;;;;;;-2.39;70.03;100973.75;5097950;28;20040;-76
2022/12/10 05:33:22;;;;;;;2.15;1.08;;;;;;;-2.38;70.11;100976.38;5096774;28;20558;-75
2022/12/10 05:35:56;;;;;;;1.65;0.68;;;;;;;-2.40;70.55;100969.44;5098739;28;20063;-74
2022/12/10 05:38:23;;;;;;;1.02;0.80;;;;;;;-2.37;70.17;100974.69;5098128;28;20067;-75
2022/12/10 05:40:50;;;;;;;1.77;0.65;;;;;;;-2.36;70.26;100976.41;5098495;28;20117;-75
2022/12/10 05:43:17;;;;;;;1.48;0.68;;;;;;;-2.37;70.37;100977.22;5097322;28;20047;-74
2022/12/10 05:45:44;;;;;;;1.83;0.73;;;;;;;-2.37;70.10;100982.34;5097309;28;20109;-75
2022/12/10 05:48:14;;;;;;;1.08;0.63;;;;;;;-2.31;70.42;100992.81;5097540;28;20055;-74
2022/12/10 05:50:42;;;;;;;0.80;0.60;;;;;;;-2.31;70.31;100987.69;5095635;28;20048;-75
2022/12/10 05:53:09;;;;;;;2.25;1.02;;;;;;;-2.31;70.38;100990.25;5097715;28;20055;-74
2022/12/10 05:55:36;;;;;;;2.38;0.50;;;;;;;-2.28;70.23;100990.34;5098627;28;20071;-74
2022/12/10 05:58:03;;;;;;;1.83;0.80;;;;;;;-2.27;70.29;100989.56;5096218;28;20059;-74
2022/12/10 06:00:29;;;;;;;0.70;0.50;;;;;;;-2.28;70.38;100991.25;5097647;28;20051;-75
2022/12/10 06:02:56;;;;;;;0.80;0.80;;;;;;;-2.24;69.79;100991.38;5096602;28;20125;-75
2022/12/10 06:05:24;;;;;;;0.93;0.57;;;;;;;-2.24;70.53;100994.78;5097122;27;20051;-76
2022/12/10 06:07:51;;;;;;;1.40;0.93;;;;;;;-2.23;70.45;100982.88;5096857;28;20047;-74
2022/12/10 06:10:18;;;;;;;1.45;0.60;;;;;;;-2.24;70.38;100983.69;5096831;28;20055;-75
2022/12/10 06:12:44;;;;;;;2.05;0.60;;;;;;;-2.21;70.22;100979.56;5096712;28;20477;-74
2022/12/10 06:15:11;;;;;;;1.20;0.63;;;;;;;-2.20;70.32;100988.09;5096121;28;20059;-75
2022/12/10 06:17:38;;;;;;;1.38;0.50;;;;;;;-2.21;69.96;100978.69;5097578;28;20551;-76
2022/12/10 06:20:06;;;;;;;1.63;0.68;;;;;;;-2.19;70.29;100982.16;5092492;28;20047;-75
2022/12/10 06:22:34;;;;;;;0.80;0.52;;;;;;;-2.18;70.49;100984.78;5096795;28;20055;-75
2022/12/10 06:25:01;;;;;;;0.80;0.60;;;;;;;-2.21;70.53;100974.44;5096542;28;20059;-75
2022/12/10 06:27:29;;;;;;;1.42;0.77;;;;;;;-2.16;70.53;100988.28;5095483;28;20047;-75
2022/12/10 06:29:56;;;;;;;0.77;0.50;;;;;;;-2.16;70.33;100983.16;5095931;28;20063;-75
2022/12/10 06:32:23;;;;;;;0.85;0.60;;;;;;;-2.16;70.40;100980.59;5097401;28;20055;-75
2022/12/10 06:34:50;;;;;;;1.08;0.68;;;;;;;-2.14;70.49;100981.50;5097973;28;20051;-74
2022/12/10 06:37:16;;;;;;;1.10;0.65;;;;;;;-2.14;70.45;100984.06;5097431;28;20218;-75
2022/12/10 06:39:44;;;;;;;0.68;0.50;;;;;;;-2.14;70.15;100981.50;5091169;28;20563;-75
2022/12/10 06:42:11;;;;;;;1.45;0.70;;;;;;;-2.11;70.35;100985.84;5092339;28;20055;-75
2022/12/10 06:44:38;;;;;;;1.83;0.63;;;;;;;-2.13;70.50;100985.81;5083045;27;20063;-74
2022/12/10 06:47:05;;;;;;;1.38;0.50;;;;;;;-2.11;70.14;100990.97;5090312;27;20048;-74
2022/12/10 06:49:31;;;;;;;0.70;0.52;;;;;;;-2.11;70.56;100985.84;5093076;28;20081;-75
2022/12/10 06:51:58;;;;;;;0.68;0.65;;;;;;;-2.08;70.46;100996.22;5093443;28;20709;-75
2022/12/10 06:54:25;;;;;;;1.23;0.70;;;;;;;-2.09;70.12;100997.91;5095505;28;20040;-75
2022/12/10 06:56:53;;;;;;;2.05;1.00;;;;;;;-2.08;70.66;100997.09;5093580;28;20043;-74
2022/12/10 06:59:20;;;;;;;2.03;0.70;;;;;;;-2.08;70.54;100999.66;5096249;28;20047;-75
2022/12/10 07:01:47;;;;;;;0.93;0.57;;;;;;;-2.07;70.64;101001.41;5096251;28;20047;-75
2022/12/10 07:04:14;;;;;;;1.63;0.80;;;;;;;-2.07;70.62;100993.72;5096525;28;20476;-75
2022/12/10 07:06:42;;;;;;;1.20;0.70;;;;;;;-2.05;70.79;100994.66;5097317;28;20103;-74
2022/12/10 07:09:09;;;;;;;1.10;0.90;;;;;;;-2.04;70.50;100998.94;5097912;28;20051;-76
2022/12/10 07:11:36;;;;;;;0.80;0.60;;;;;;;-2.03;70.42;100999.81;5097420;28;20146;-76
2022/12/10 07:14:05;;;;;;;2.22;0.80;;;;;;;-2.04;70.76;100998.06;5097406;28;20044;-76
2022/12/10 07:16:33;;;;;;;1.10;0.65;;;;;;;-2.01;70.42;101002.44;5097953;28;20051;-77
2022/12/10 07:19:02;;;;;;;1.17;0.80;;;;;;;-2.03;70.62;101008.34;5098482;28;20054;-77
2022/12/10 07:21:31;;;;;;;2.20;0.75;;;;;;;-2.01;70.69;101007.56;5100079;28;20044;-77
2022/12/10 07:24:02;;;;;;;1.30;0.65;;;;;;;-2.06;70.52;101000.56;5104839;28;20044;-78
2022/12/10 07:26:30;;;;;;;1.30;0.82;;;;;;;-1.99;70.58;101013.59;5103899;28;20043;-77
2022/12/10 07:28:58;;;;;;;0.80;0.63;;;;;;;-1.99;70.17;101014.47;5103846;27;20055;-77
2022/12/10 07:31:27;;;;;;;6.22;0.90;;;;;;;-2.02;70.66;101001.56;5103605;28;20047;-77
2022/12/10 07:33:54;;;;;;;1.10;0.70;;;;;;;-1.97;70.51;101014.53;5105792;28;20048;-78
2022/12/10 07:36:24;;;;;;;2.50;0.90;;;;;;;-1.97;70.50;101014.53;5103873;28;20040;-77
2022/12/10 07:38:52;;;;;;;1.05;0.50;;;;;;;-1.99;70.54;100999.13;5105363;28;20066;-77
2022/12/10 07:41:19;;;;;;;1.10;0.70;;;;;;;-1.97;70.60;101017.06;5101622;28;20204;-78
2022/12/10 07:43:47;;;;;;;2.63;0.63;;;;;;;-1.98;70.37;101005.09;5101672;28;20060;-78
2022/12/10 07:46:16;;;;;;;1.00;0.68;;;;;;;-1.95;70.49;101012.91;5102893;28;20055;-78
2022/12/10 07:48:45;;;;;;;1.30;0.82;;;;;;;-1.96;70.63;101014.59;5102925;28;20043;-77
2022/12/10 07:51:13;;;;;;;1.88;0.80;;;;;;;-1.95;70.81;101024.00;5103116;28;20519;-77
2022/12/10 07:53:40;;;;;;;1.77;0.70;;;;;;;-1.93;70.64;101027.50;5099099;28;20036;-75
2022/12/10 07:56:07;;;;;;;2.05;0.75;;;;;;;-1.93;70.51;101024.06;5099352;28;20125;-76
2022/12/10 07:58:34;;;;;;;1.88;1.15;;;;;;;-2.03;70.56;101010.91;5093906;28;20686;-76
2022/12/10 08:01:08;;;;;;;3.17;0.80;;;;;;;-1.91;70.83;101019.84;5098032;27;20048;-75
2022/12/10 08:03:35;;;;;;;3.67;0.98;;;;;;;-1.91;70.38;101027.53;5095426;28;20280;-75
2022/12/10 08:06:05;;;;;;;0.90;0.68;;;;;;;-1.94;70.79;101023.19;5099129;28;20114;-75
2022/12/10 08:08:33;;;;;;;2.38;0.90;;;;;;;-1.90;70.42;101030.16;5092981;28;20729;-75
2022/12/10 08:11:01;;;;;;;1.85;0.90;;;;;;;-1.92;70.26;101025.81;5096855;28;20059;-74
2022/12/10 08:13:28;;;;;;;3.20;0.95;;;;;;;-1.89;70.43;101029.34;5094501;28;20054;-75
2022/12/10 08:15:54;;;;;;;1.88;0.98;;;;;;;-1.89;70.69;101039.56;5097367;28;20450;-76
2022/12/10 08:18:22;;;;;;;3.10;0.90;;;;;;;-1.88;70.61;101038.78;5096378;28;20780;-75
2022/12/10 08:20:48;;;;;;;2.47;1.00;;;;;;;-1.90;70.85;101036.97;5098374;28;20059;-75
2022/12/10 08:23:16;;;;;;;1.80;1.00;;;;;;;-1.86;70.68;101033.69;5097740;28;20419;-75
2022/12/10 08:25:43;;;;;;;1.92;1.08;;;;;;;-1.86;70.84;101033.69;5099339;28;20040;-74
2022/12/10 08:28:10;;;;;;;2.53;0.82;;;;;;;-1.84;70.51;101030.38;5100233;27;20040;-75
2022/12/10 08:30:37;;;;;;;2.10;1.60;;;;;;;-1.84;70.54;101029.50;5097569;28;20556;-75
2022/12/10 08:33:03;;;;;;;3.22;1.70;;;;;;;-1.83;70.54;101036.38;5101926;28;20445;-75
2022/12/10 08:35:31;;;;;;;4.88;1.50;;;;;;;-1.82;70.85;101038.13;5100522;28;20062;-76
2022/12/10 08:37:57;;;;;;;2.45;1.58;;;;;;;-1.87;70.61;101026.84;5102201;28;20063;-75
2022/12/10 08:40:26;;;;;;;3.40;1.60;;;;;;;-1.81;70.70;101044.97;5102587;27;20077;-75
2022/12/10 08:42:53;;;;;;;4.63;0.85;;;;;;;-1.81;70.23;101038.16;5097852;28;20048;-75
2022/12/10 08:45:19;;;;;;;2.20;1.10;;;;;;;-1.82;70.73;101033.00;5100045;28;20549;-75
2022/12/10 08:47:46;;;;;;;4.38;1.67;;;;;;;-1.79;70.79;101040.81;5099468;27;20056;-75
2022/12/10 08:50:13;;;;;;;2.75;1.35;;;;;;;-1.78;70.77;101041.66;5100483;28;20054;-75
2022/12/10 08:52:40;;;;;;;3.72;1.38;;;;;;;-1.78;70.50;101037.41;5094344;28;20059;-75
2022/12/10 08:55:07;;;;;;;5.53;1.52;;;;;;;-1.77;70.88;101033.16;5102203;27;20044;-74
2022/12/10 08:57:36;;;;;;;5.35;2.53;;;;;;;-1.77;70.65;101040.84;5096277;28;20541;-75
2022/12/10 09:00:04;;;;;;;3.03;1.45;;;;;;;-1.76;70.84;101040.91;5099536;28;20048;-75
2022/12/10 09:02:31;;;;;;;21.52;8.60;;;;;;;-1.75;70.38;101034.09;5097248;27;20467;-75
2022/12/10 09:04:57;;;;;;;11.68;5.35;;;;;;;-1.74;70.22;101043.50;5095830;28;20040;-76
2022/12/10 09:07:24;;;;;;;7.03;3.25;;;;;;;-1.73;70.94;101035.03;5097551;27;20048;-74
2022/12/10 09:09:51;;;;;;;10.13;3.90;;;;;;;-1.71;70.68;101033.38;5098027;28;20052;-75
2022/12/10 09:12:18;;;;;;;6.13;2.83;;;;;;;-1.71;70.47;101041.91;5098865;28;20047;-75
2022/12/10 09:14:46;;;;;;;4.53;2.35;;;;;;;-1.72;70.67;101042.75;5101525;27;20454;-75
2022/12/10 09:17:13;;;;;;;4.50;2.22;;;;;;;-1.69;70.30;101052.22;5095798;28;20048;-75
2022/12/10 09:19:39;;;;;;;4.93;1.77;;;;;;;-1.69;70.75;101047.97;5099833;28;20040;-75
2022/12/10 09:22:06;;;;;;;5.10;2.45;;;;;;;-1.68;70.45;101048.84;5099963;28;20047;-74
2022/12/10 09:24:33;;;;;;;6.00;2.60;;;;;;;-1.67;70.76;101054.03;5094540;28;20040;-74
2022/12/10 09:27:00;;;;;;;5.85;2.22;;;;;;;-1.66;70.99;101047.22;5098620;28;20075;-74
2022/12/10 09:29:28;;;;;;;3.60;2.08;;;;;;;-1.65;70.75;101059.19;5096752;27;20540;-75
2022/12/10 09:31:56;;;;;;;5.43;2.65;;;;;;;-1.66;70.54;101060.88;5094861;28;20048;-75
2022/12/10 09:34:23;;;;;;;3.28;1.63;;;;;;;-1.70;70.71;101043.69;5094715;28;20043;-74
2022/12/10 09:36:49;;;;;;;5.20;1.90;;;;;;;-1.65;70.73;101059.19;5095744;28;20458;-75
2022/12/10 09:39:16;;;;;;;4.80;2.13;;;;;;;-1.63;70.25;101063.56;5095791;28;20047;-74
2022/12/10 09:41:57;;;;;;;3.50;1.80;;;;;;;-1.61;70.81;101056.81;5097321;28;20043;-74
2022/12/10 09:44:36;;;;;;;4.90;1.80;;;;;;;-1.61;70.79;101067.06;5094701;27;20145;-74
2022/12/10 09:47:08;;;;;;;3.03;1.92;;;;;;;-1.60;70.76;101066.22;5092187;28;20089;-73
2022/12/10 09:49:48;;;;;;;3.80;1.90;;;;;;;-1.59;70.80;101067.13;5094992;28;20040;-74
2022/12/10 09:52:19;;;;;;;2.13;1.60;;;;;;;-1.58;70.76;101064.59;5096776;28;20093;-74
2022/12/10 09:54:50;;;;;;;2.03;1.23;;;;;;;-1.58;70.76;101056.03;5092832;28;20454;-74
2022/12/10 09:57:22;;;;;;;2.90;1.88;;;;;;;-1.57;70.81;101052.66;5094766;28;20091;-79
2022/12/10 09:59:51;;;;;;;5.13;2.65;;;;;;;-1.56;70.42;101061.25;5097336;28;20453;-78
2022/12/10 10:02:25;;;;;;;3.47;1.73;;;;;;;-1.58;70.72;101056.91;5101634;27;20056;-77
2022/12/10 10:04:57;;;;;;;2.33;1.30;;;;;;;-1.61;70.43;101054.25;5099931;28;20047;-75
2022/12/10 10:07:27;;;;;;;4.47;1.80;;;;;;;-1.56;70.49;101062.09;5098537;28;20059;-74
2022/12/10 10:09:58;;;;;;;5.30;2.63;;;;;;;-1.52;70.53;101066.50;5097797;28;20044;-75
2022/12/10 10:12:28;;;;;;;11.70;3.03;;;;;;;-1.58;70.58;101056.03;5099555;28;20580;-75
2022/12/10 10:14:54;;;;;;;5.53;2.35;;;;;;;-1.48;70.54;101073.50;5097337;28;20052;-74
2022/12/10 10:17:29;;;;;;;3.28;1.77;;;;;;;-1.48;70.83;101059.78;5100383;28;20044;-74
2022/12/10 10:19:56;;;;;;;6.40;2.45;;;;;;;-1.45;70.49;101065.91;5093229;28;20047;-74
2022/12/10 10:22:23;;;;;;;5.15;2.47;;;;;;;-1.49;70.06;101058.06;5098109;28;20380;-73
2022/12/10 10:24:50;;;;;;;4.05;2.80;;;;;;;-1.42;70.70;101071.16;5095763;28;20438;-73
2022/12/10 10:27:19;;;;;;;6.18;3.10;;;;;;;-1.53;70.60;101045.97;5094942;28;20044;-73
2022/12/10 10:29:48;;;;;;;4.00;2.38;;;;;;;-1.44;70.49;101059.97;5102390;28;20491;-75
2022/12/10 10:32:18;;;;;;;3.28;2.50;;;;;;;-1.38;70.18;101069.56;5099923;27;20048;-74
2022/12/10 10:34:48;;;;;;;8.65;3.25;;;;;;;-1.38;70.02;101061.88;5101327;28;20355;-74
2022/12/10 10:37:26;;;;;;;7.05;3.05;;;;;;;-1.48;70.28;101044.41;5097417;27;20044;-73
2022/12/10 10:39:54;;;;;;;3.85;2.13;;;;;;;-1.35;70.35;101064.53;5098648;27;20036;-74
2022/12/10 10:42:34;;;;;;;9.75;3.70;;;;;;;-1.34;70.43;101061.13;5099280;28;20048;-74
2022/12/10 10:45:01;;;;;;;8.75;4.10;;;;;;;-1.33;70.96;101062.91;5101037;28;20056;-72
2022/12/10 10:47:30;;;;;;;9.32;3.72;;;;;;;-1.32;70.59;101069.75;5096598;28;20044;-75
2022/12/10 10:49:59;;;;;;;8.02;3.42;;;;;;;-1.29;70.16;101069.00;5100513;28;20047;-74
2022/12/10 10:52:30;;;;;;;5.30;2.60;;;;;;;-1.30;70.56;101062.13;5096689;28;20070;-74
2022/12/10 10:54:56;;;;;;;5.05;2.80;;;;;;;-1.27;70.74;101070.78;5098885;28;20144;-73
2022/12/10 10:57:28;;;;;;;3.55;2.03;;;;;;;-1.29;70.73;101062.16;5102386;28;20071;-74
2022/12/10 10:59:57;;;;;;;7.88;2.42;;;;;;;-1.25;70.46;101066.59;5099834;28;20056;-74
2022/12/10 11:02:31;;;;;;;5.47;2.50;;;;;;;-1.23;70.77;101074.31;5097592;28;20077;-78
2022/12/10 11:05:07;;;;;;;4.53;2.78;;;;;;;-1.22;70.45;101070.97;5102833;28;20044;-74
2022/12/10 11:07:36;;;;;;;7.00;2.90;;;;;;;-1.23;70.21;101075.19;5099356;28;20158;-74
2022/12/10 11:10:05;;;;;;;8.45;3.03;;;;;;;-1.20;70.46;101072.72;5099051;28;20043;-73
2022/12/10 11:12:37;;;;;;;4.78;2.20;;;;;;;-1.19;70.12;101077.06;5100928;28;20573;-74
2022/12/10 11:15:30;;;;;;;2.40;2.00;;;;;;;-1.16;70.36;101086.53;5100813;28;20564;-74
2022/12/10 11:17:58;;;;;;;3.78;2.10;;;;;;;-1.16;70.25;101079.72;5099117;28;20055;-74
2022/12/10 11:20:29;;;;;;;2.80;1.98;;;;;;;-1.15;70.07;101083.16;5097166;28;20054;-74
2022/12/10 11:22:57;;;;;;;3.42;1.77;;;;;;;-1.15;70.33;101078.88;5098271;28;20507;-74
2022/12/10 11:25:39;;;;;;;3.78;2.00;;;;;;;-1.27;69.93;101057.13;5095628;28;20089;-74
2022/12/10 11:28:20;;;;;;;6.35;2.63;;;;;;;-1.13;70.21;101087.50;5099796;28;20074;-73
2022/12/10 11:30:54;;;;;;;3.47;1.98;;;;;;;-1.11;70.02;101077.31;5099084;28;20105;-73
2022/12/10 11:33:28;;;;;;;6.70;2.92;;;;;;;-1.10;70.33;101081.63;5099058;28;20055;-73
2022/12/10 11:36:06;;;;;;;3.05;1.83;;;;;;;-1.08;70.10;101086.78;5099116;28;20048;-73
2022/12/10 11:38:41;;;;;;;2.88;1.85;;;;;;;-1.11;70.11;101079.88;5097454;28;20040;-73
2022/12/10 11:41:18;;;;;;;4.35;1.90;;;;;;;-1.08;69.86;101087.69;5095088;28;20048;-73
2022/12/10 11:44:06;;;;;;;5.25;2.47;;;;;;;-1.13;69.74;101082.38;5098783;28;20035;-73